sensor_id;sensor_type;location;lat;lon;timestamp;P1;durP1;ratioP1;P2;durP2;ratioP2
10489;SDS011;35569;48.402;10.670;2023-05-10T00:00:15;1.33;;;1.33;;
10489;SDS011;35569;48.402;10.670;2023-05-10T00:00:52;1.90;;;1.80;;
10489;SDS011;35569;48.402;10.670;2023-05-10T00:01:24;1.47;;;1.47;;
10489;SDS011;35569;48.402;10.670;2023-05-10T00:01:56;1.77;;;1.50;;
10489;SDS011;35569;48.402;10.670;2023-05-10T00:02:32;1.50;;;1.50;;
10489;SDS011;35569;48.402;10.670;2023-05-10T00:03:04;1.20;;;1.10;;
10489;SDS011;35569;48.402;10.670;2023-05-10T00:03:37;1.20;;;1.20;;
10489;SDS011;35569;48.402;10.670;2023-05-10T00:04:12;1.17;;;1.17;;
10489;SDS011;35569;48.402;10.670;2023-05-10T00:04:45;1.20;;;1.20;;
10489;SDS011;35569;48.402;10.670;2023-05-10T00:05:17;1.33;;;1.30;;
10489;SDS011;35569;48.402;10.670;2023-05-10T00:05:52;1.37;;;1.37;;
10489;SDS011;35569;48.402;10.670;2023-05-10T00:06:25;1.30;;;1.27;;
10489;SDS011;35569;48.402;10.670;2023-05-10T00:06:58;1.60;;;1.50;;
10489;SDS011;35569;48.402;10.670;2023-05-10T00:07:36;1.20;;;1.20;;
10489;SDS011;35569;48.402;10.670;2023-05-10T00:08:08;1.50;;;1.40;;
10489;SDS011;35569;48.402;10.670;2023-05-10T00:08:40;1.10;;;1.10;;
10489;SDS011;35569;48.402;10.670;2023-05-10T00:09:15;2.80;;;1.10;;
10489;SDS011;35569;48.402;10.670;2023-05-10T00:09:48;1.30;;;1.30;;
10489;SDS011;35569;48.402;10.670;2023-05-10T00:10:20;1.30;;;1.20;;
10489;SDS011;35569;48.402;10.670;2023-05-10T00:10:55;1.10;;;1.10;;
10489;SDS011;35569;48.402;10.670;2023-05-10T00:11:27;1.80;;;1.70;;
10489;SDS011;35569;48.402;10.670;2023-05-10T00:12:00;1.50;;;1.50;;
10489;SDS011;35569;48.402;10.670;2023-05-10T00:12:35;1.43;;;1.20;;
10489;SDS011;35569;48.402;10.670;2023-05-10T00:13:07;1.20;;;1.20;;
10489;SDS011;35569;48.402;10.670;2023-05-10T00:13:39;1.20;;;1.20;;
10489;SDS011;35569;48.402;10.670;2023-05-10T00:14:14;1.10;;;1.10;;
10489;SDS011;35569;48.402;10.670;2023-05-10T00:14:47;1.23;;;1.20;;
10489;SDS011;35569;48.402;10.670;2023-05-10T00:15:19;0.93;;;0.93;;
10489;SDS011;35569;48.402;10.670;2023-05-10T00:15:54;1.07;;;1.07;;
10489;SDS011;35569;48.402;10.670;2023-05-10T00:16:27;1.30;;;1.30;;
10489;SDS011;35569;48.402;10.670;2023-05-10T00:16:59;1.30;;;1.30;;
10489;SDS011;35569;48.402;10.670;2023-05-10T00:17:34;1.20;;;1.20;;
10489;SDS011;35569;48.402;10.670;2023-05-10T00:18:07;1.37;;;1.37;;
10489;SDS011;35569;48.402;10.670;2023-05-10T00:18:39;1.17;;;1.17;;
10489;SDS011;35569;48.402;10.670;2023-05-10T00:19:14;1.10;;;1.10;;
10489;SDS011;35569;48.402;10.670;2023-05-10T00:19:47;1.00;;;1.00;;
10489;SDS011;35569;48.402;10.670;2023-05-10T00:20:19;1.40;;;1.30;;
10489;SDS011;35569;48.402;10.670;2023-05-10T00:20:54;1.33;;;1.33;;
10489;SDS011;35569;48.402;10.670;2023-05-10T00:21:27;1.00;;;1.00;;
10489;SDS011;35569;48.402;10.670;2023-05-10T00:22:00;1.17;;;1.17;;
10489;SDS011;35569;48.402;10.670;2023-05-10T00:22:37;1.00;;;1.00;;
10489;SDS011;35569;48.402;10.670;2023-05-10T00:23:09;0.97;;;0.97;;
10489;SDS011;35569;48.402;10.670;2023-05-10T00:23:42;0.90;;;0.90;;
10489;SDS011;35569;48.402;10.670;2023-05-10T00:24:17;1.07;;;1.07;;
10489;SDS011;35569;48.402;10.670;2023-05-10T00:24:49;1.00;;;1.00;;
10489;SDS011;35569;48.402;10.670;2023-05-10T00:25:22;1.27;;;0.90;;
10489;SDS011;35569;48.402;10.670;2023-05-10T00:25:56;1.00;;;1.00;;
10489;SDS011;35569;48.402;10.670;2023-05-10T00:26:29;1.13;;;1.10;;
10489;SDS011;35569;48.402;10.670;2023-05-10T00:27:02;1.07;;;1.07;;
10489;SDS011;35569;48.402;10.670;2023-05-10T00:27:37;1.30;;;1.30;;
10489;SDS011;35569;48.402;10.670;2023-05-10T00:28:09;1.30;;;1.30;;
10489;SDS011;35569;48.402;10.670;2023-05-10T00:28:42;0.80;;;0.80;;
10489;SDS011;35569;48.402;10.670;2023-05-10T00:29:17;0.97;;;0.97;;
10489;SDS011;35569;48.402;10.670;2023-05-10T00:29:49;1.27;;;1.27;;
10489;SDS011;35569;48.402;10.670;2023-05-10T00:30:21;0.80;;;0.80;;
10489;SDS011;35569;48.402;10.670;2023-05-10T00:30:56;1.00;;;0.93;;
10489;SDS011;35569;48.402;10.670;2023-05-10T00:31:29;1.07;;;1.07;;
10489;SDS011;35569;48.402;10.670;2023-05-10T00:32:01;1.00;;;1.00;;
10489;SDS011;35569;48.402;10.670;2023-05-10T00:32:36;0.70;;;0.70;;
10489;SDS011;35569;48.402;10.670;2023-05-10T00:33:09;1.00;;;1.00;;
10489;SDS011;35569;48.402;10.670;2023-05-10T00:33:43;0.80;;;0.80;;
10489;SDS011;35569;48.402;10.670;2023-05-10T00:34:15;0.70;;;0.70;;
10489;SDS011;35569;48.402;10.670;2023-05-10T00:34:50;1.37;;;1.10;;
10489;SDS011;35569;48.402;10.670;2023-05-10T00:35:23;0.90;;;0.90;;
10489;SDS011;35569;48.402;10.670;2023-05-10T00:35:55;0.77;;;0.77;;
10489;SDS011;35569;48.402;10.670;2023-05-10T00:36:30;0.80;;;0.80;;
10489;SDS011;35569;48.402;10.670;2023-05-10T00:37:03;0.90;;;0.90;;
10489;SDS011;35569;48.402;10.670;2023-05-10T00:37:38;0.87;;;0.87;;
10489;SDS011;35569;48.402;10.670;2023-05-10T00:38:13;1.10;;;0.97;;
10489;SDS011;35569;48.402;10.670;2023-05-10T00:38:45;1.33;;;0.80;;
10489;SDS011;35569;48.402;10.670;2023-05-10T00:39:18;0.80;;;0.80;;
10489;SDS011;35569;48.402;10.670;2023-05-10T00:39:53;1.10;;;1.10;;
10489;SDS011;35569;48.402;10.670;2023-05-10T00:40:26;1.07;;;1.07;;
10489;SDS011;35569;48.402;10.670;2023-05-10T00:41:02;1.73;;;1.00;;
10489;SDS011;35569;48.402;10.670;2023-05-10T00:41:40;0.87;;;0.87;;
10489;SDS011;35569;48.402;10.670;2023-05-10T00:42:12;0.90;;;0.90;;
10489;SDS011;35569;48.402;10.670;2023-05-10T00:42:45;1.10;;;1.10;;
10489;SDS011;35569;48.402;10.670;2023-05-10T00:43:20;0.83;;;0.83;;
10489;SDS011;35569;48.402;10.670;2023-05-10T00:43:53;1.13;;;1.03;;
10489;SDS011;35569;48.402;10.670;2023-05-10T00:44:25;1.10;;;1.00;;
10489;SDS011;35569;48.402;10.670;2023-05-10T00:45:00;1.20;;;1.20;;
10489;SDS011;35569;48.402;10.670;2023-05-10T00:45:34;1.17;;;1.17;;
10489;SDS011;35569;48.402;10.670;2023-05-10T00:46:08;0.80;;;0.80;;
10489;SDS011;35569;48.402;10.670;2023-05-10T00:46:43;0.80;;;0.80;;
10489;SDS011;35569;48.402;10.670;2023-05-10T00:47:15;0.87;;;0.87;;
10489;SDS011;35569;48.402;10.670;2023-05-10T00:47:48;0.63;;;0.63;;
10489;SDS011;35569;48.402;10.670;2023-05-10T00:48:23;1.83;;;1.10;;
10489;SDS011;35569;48.402;10.670;2023-05-10T00:48:56;2.27;;;1.07;;
10489;SDS011;35569;48.402;10.670;2023-05-10T00:49:28;0.80;;;0.80;;
10489;SDS011;35569;48.402;10.670;2023-05-10T00:50:04;1.10;;;1.00;;
10489;SDS011;35569;48.402;10.670;2023-05-10T00:50:38;0.93;;;0.93;;
10489;SDS011;35569;48.402;10.670;2023-05-10T00:51:11;0.80;;;0.80;;
10489;SDS011;35569;48.402;10.670;2023-05-10T00:51:47;1.00;;;1.00;;
10489;SDS011;35569;48.402;10.670;2023-05-10T00:52:19;0.90;;;0.90;;
10489;SDS011;35569;48.402;10.670;2023-05-10T00:52:54;0.87;;;0.87;;
10489;SDS011;35569;48.402;10.670;2023-05-10T00:53:30;0.73;;;0.73;;
10489;SDS011;35569;48.402;10.670;2023-05-10T00:54:03;0.83;;;0.83;;
10489;SDS011;35569;48.402;10.670;2023-05-10T00:54:36;0.90;;;0.90;;
10489;SDS011;35569;48.402;10.670;2023-05-10T00:55:09;0.80;;;0.80;;
10489;SDS011;35569;48.402;10.670;2023-05-10T00:55:44;0.97;;;0.97;;
10489;SDS011;35569;48.402;10.670;2023-05-10T00:56:17;0.70;;;0.70;;
10489;SDS011;35569;48.402;10.670;2023-05-10T00:56:50;0.80;;;0.80;;
10489;SDS011;35569;48.402;10.670;2023-05-10T00:57:25;1.20;;;0.80;;
10489;SDS011;35569;48.402;10.670;2023-05-10T00:57:58;1.10;;;0.80;;
10489;SDS011;35569;48.402;10.670;2023-05-10T00:58:30;1.00;;;1.00;;
10489;SDS011;35569;48.402;10.670;2023-05-10T00:59:05;0.97;;;0.97;;
10489;SDS011;35569;48.402;10.670;2023-05-10T00:59:38;0.70;;;0.70;;
10489;SDS011;35569;48.402;10.670;2023-05-10T01:00:11;0.73;;;0.73;;
10489;SDS011;35569;48.402;10.670;2023-05-10T01:00:49;0.80;;;0.80;;
10489;SDS011;35569;48.402;10.670;2023-05-10T01:01:22;0.70;;;0.70;;
10489;SDS011;35569;48.402;10.670;2023-05-10T01:01:55;0.70;;;0.70;;
10489;SDS011;35569;48.402;10.670;2023-05-10T01:02:33;0.93;;;0.83;;
10489;SDS011;35569;48.402;10.670;2023-05-10T01:03:06;0.80;;;0.80;;
10489;SDS011;35569;48.402;10.670;2023-05-10T01:03:39;0.80;;;0.80;;
10489;SDS011;35569;48.402;10.670;2023-05-10T01:04:14;1.00;;;1.00;;
10489;SDS011;35569;48.402;10.670;2023-05-10T01:04:47;0.70;;;0.70;;
10489;SDS011;35569;48.402;10.670;2023-05-10T01:05:20;0.73;;;0.73;;
10489;SDS011;35569;48.402;10.670;2023-05-10T01:05:56;0.80;;;0.80;;
10489;SDS011;35569;48.402;10.670;2023-05-10T01:06:28;0.70;;;0.70;;
10489;SDS011;35569;48.402;10.670;2023-05-10T01:07:01;0.80;;;0.80;;
10489;SDS011;35569;48.402;10.670;2023-05-10T01:07:36;1.10;;;0.80;;
10489;SDS011;35569;48.402;10.670;2023-05-10T01:08:11;0.70;;;0.70;;
10489;SDS011;35569;48.402;10.670;2023-05-10T01:08:43;0.87;;;0.87;;
10489;SDS011;35569;48.402;10.670;2023-05-10T01:09:19;0.83;;;0.83;;
10489;SDS011;35569;48.402;10.670;2023-05-10T01:09:51;2.33;;;0.70;;
10489;SDS011;35569;48.402;10.670;2023-05-10T01:10:23;0.80;;;0.80;;
10489;SDS011;35569;48.402;10.670;2023-05-10T01:10:56;0.77;;;0.77;;
10489;SDS011;35569;48.402;10.670;2023-05-10T01:11:32;0.80;;;0.80;;
10489;SDS011;35569;48.402;10.670;2023-05-10T01:12:06;2.00;;;0.77;;
10489;SDS011;35569;48.402;10.670;2023-05-10T01:12:39;0.90;;;0.90;;
10489;SDS011;35569;48.402;10.670;2023-05-10T01:13:16;0.77;;;0.77;;
10489;SDS011;35569;48.402;10.670;2023-05-10T01:13:52;0.70;;;0.70;;
10489;SDS011;35569;48.402;10.670;2023-05-10T01:14:30;1.53;;;0.80;;
10489;SDS011;35569;48.402;10.670;2023-05-10T01:15:03;2.10;;;0.83;;
10489;SDS011;35569;48.402;10.670;2023-05-10T01:15:37;1.70;;;0.70;;
10489;SDS011;35569;48.402;10.670;2023-05-10T01:16:12;0.90;;;0.90;;
10489;SDS011;35569;48.402;10.670;2023-05-10T01:16:45;1.13;;;0.80;;
10489;SDS011;35569;48.402;10.670;2023-05-10T01:17:20;0.70;;;0.70;;
10489;SDS011;35569;48.402;10.670;2023-05-10T01:17:56;5.30;;;0.80;;
10489;SDS011;35569;48.402;10.670;2023-05-10T01:18:29;0.70;;;0.70;;
10489;SDS011;35569;48.402;10.670;2023-05-10T01:19:03;0.70;;;0.70;;
10489;SDS011;35569;48.402;10.670;2023-05-10T01:19:39;0.60;;;0.60;;
10489;SDS011;35569;48.402;10.670;2023-05-10T01:20:11;0.60;;;0.60;;
10489;SDS011;35569;48.402;10.670;2023-05-10T01:20:44;0.90;;;0.90;;
10489;SDS011;35569;48.402;10.670;2023-05-10T01:21:22;0.70;;;0.70;;
10489;SDS011;35569;48.402;10.670;2023-05-10T01:22:05;0.60;;;0.60;;
10489;SDS011;35569;48.402;10.670;2023-05-10T01:24:09;0.80;;;0.80;;
10489;SDS011;35569;48.402;10.670;2023-05-10T01:25:18;0.93;;;0.90;;
10489;SDS011;35569;48.402;10.670;2023-05-10T01:28:39;0.87;;;0.87;;
10489;SDS011;35569;48.402;10.670;2023-05-10T01:30:51;0.60;;;0.60;;
10489;SDS011;35569;48.402;10.670;2023-05-10T01:31:51;0.80;;;0.80;;
10489;SDS011;35569;48.402;10.670;2023-05-10T01:32:31;0.83;;;0.83;;
10489;SDS011;35569;48.402;10.670;2023-05-10T01:33:10;0.70;;;0.70;;
10489;SDS011;35569;48.402;10.670;2023-05-10T01:33:45;0.80;;;0.80;;
10489;SDS011;35569;48.402;10.670;2023-05-10T01:34:20;0.70;;;0.70;;
10489;SDS011;35569;48.402;10.670;2023-05-10T01:34:59;1.03;;;0.97;;
10489;SDS011;35569;48.402;10.670;2023-05-10T01:35:34;0.57;;;0.57;;
10489;SDS011;35569;48.402;10.670;2023-05-10T01:36:12;0.60;;;0.60;;
10489;SDS011;35569;48.402;10.670;2023-05-10T01:36:48;0.50;;;0.50;;
10489;SDS011;35569;48.402;10.670;2023-05-10T01:37:28;0.60;;;0.60;;
10489;SDS011;35569;48.402;10.670;2023-05-10T01:38:09;0.60;;;0.60;;
10489;SDS011;35569;48.402;10.670;2023-05-10T01:38:47;0.70;;;0.70;;
10489;SDS011;35569;48.402;10.670;2023-05-10T01:39:25;0.57;;;0.57;;
10489;SDS011;35569;48.402;10.670;2023-05-10T01:40:03;0.80;;;0.80;;
10489;SDS011;35569;48.402;10.670;2023-05-10T01:40:42;0.73;;;0.57;;
10489;SDS011;35569;48.402;10.670;2023-05-10T01:41:25;0.67;;;0.67;;
10489;SDS011;35569;48.402;10.670;2023-05-10T01:42:01;0.50;;;0.50;;
10489;SDS011;35569;48.402;10.670;2023-05-10T01:42:36;0.60;;;0.60;;
10489;SDS011;35569;48.402;10.670;2023-05-10T01:43:15;0.80;;;0.80;;
10489;SDS011;35569;48.402;10.670;2023-05-10T01:43:57;2.00;;;0.70;;
10489;SDS011;35569;48.402;10.670;2023-05-10T01:44:37;0.70;;;0.70;;
10489;SDS011;35569;48.402;10.670;2023-05-10T01:45:18;0.50;;;0.50;;
10489;SDS011;35569;48.402;10.670;2023-05-10T01:45:56;0.60;;;0.60;;
10489;SDS011;35569;48.402;10.670;2023-05-10T01:46:33;1.20;;;0.70;;
10489;SDS011;35569;48.402;10.670;2023-05-10T01:47:14;0.70;;;0.70;;
10489;SDS011;35569;48.402;10.670;2023-05-10T01:47:50;0.50;;;0.50;;
10489;SDS011;35569;48.402;10.670;2023-05-10T01:48:26;0.50;;;0.50;;
10489;SDS011;35569;48.402;10.670;2023-05-10T01:49:06;0.60;;;0.60;;
10489;SDS011;35569;48.402;10.670;2023-05-10T01:49:41;0.60;;;0.60;;
10489;SDS011;35569;48.402;10.670;2023-05-10T01:50:16;0.60;;;0.60;;
10489;SDS011;35569;48.402;10.670;2023-05-10T01:50:53;1.00;;;0.60;;
10489;SDS011;35569;48.402;10.670;2023-05-10T01:51:29;0.60;;;0.60;;
10489;SDS011;35569;48.402;10.670;2023-05-10T01:52:06;0.70;;;0.70;;
10489;SDS011;35569;48.402;10.670;2023-05-10T01:52:44;0.60;;;0.60;;
10489;SDS011;35569;48.402;10.670;2023-05-10T01:53:24;0.70;;;0.70;;
10489;SDS011;35569;48.402;10.670;2023-05-10T01:53:58;0.60;;;0.60;;
10489;SDS011;35569;48.402;10.670;2023-05-10T01:54:35;0.50;;;0.50;;
10489;SDS011;35569;48.402;10.670;2023-05-10T01:55:09;0.57;;;0.57;;
10489;SDS011;35569;48.402;10.670;2023-05-10T01:55:44;0.50;;;0.50;;
10489;SDS011;35569;48.402;10.670;2023-05-10T01:56:22;0.70;;;0.70;;
10489;SDS011;35569;48.402;10.670;2023-05-10T01:56:57;0.60;;;0.60;;
10489;SDS011;35569;48.402;10.670;2023-05-10T01:57:32;0.60;;;0.60;;
10489;SDS011;35569;48.402;10.670;2023-05-10T01:58:07;0.50;;;0.50;;
10489;SDS011;35569;48.402;10.670;2023-05-10T01:58:43;0.60;;;0.60;;
10489;SDS011;35569;48.402;10.670;2023-05-10T01:59:18;1.43;;;0.73;;
10489;SDS011;35569;48.402;10.670;2023-05-10T01:59:51;0.50;;;0.50;;
10489;SDS011;35569;48.402;10.670;2023-05-10T02:00:26;0.70;;;0.70;;
10489;SDS011;35569;48.402;10.670;2023-05-10T02:01:00;0.50;;;0.50;;
10489;SDS011;35569;48.402;10.670;2023-05-10T02:01:33;0.60;;;0.60;;
10489;SDS011;35569;48.402;10.670;2023-05-10T02:02:09;0.50;;;0.50;;
10489;SDS011;35569;48.402;10.670;2023-05-10T02:02:45;0.97;;;0.70;;
10489;SDS011;35569;48.402;10.670;2023-05-10T02:03:18;0.47;;;0.47;;
10489;SDS011;35569;48.402;10.670;2023-05-10T02:03:55;0.60;;;0.60;;
10489;SDS011;35569;48.402;10.670;2023-05-10T02:04:29;0.60;;;0.60;;
10489;SDS011;35569;48.402;10.670;2023-05-10T02:05:02;0.60;;;0.60;;
10489;SDS011;35569;48.402;10.670;2023-05-10T02:05:38;0.63;;;0.63;;
10489;SDS011;35569;48.402;10.670;2023-05-10T02:06:11;0.60;;;0.60;;
10489;SDS011;35569;48.402;10.670;2023-05-10T02:06:45;0.60;;;0.60;;
10489;SDS011;35569;48.402;10.670;2023-05-10T02:07:21;0.60;;;0.60;;
10489;SDS011;35569;48.402;10.670;2023-05-10T02:07:54;0.50;;;0.50;;
10489;SDS011;35569;48.402;10.670;2023-05-10T02:08:27;0.80;;;0.80;;
10489;SDS011;35569;48.402;10.670;2023-05-10T02:09:03;0.57;;;0.57;;
10489;SDS011;35569;48.402;10.670;2023-05-10T02:09:37;0.50;;;0.50;;
10489;SDS011;35569;48.402;10.670;2023-05-10T02:10:10;0.57;;;0.57;;
10489;SDS011;35569;48.402;10.670;2023-05-10T02:10:46;0.50;;;0.50;;
10489;SDS011;35569;48.402;10.670;2023-05-10T02:11:19;0.50;;;0.50;;
10489;SDS011;35569;48.402;10.670;2023-05-10T02:11:53;0.80;;;0.60;;
10489;SDS011;35569;48.402;10.670;2023-05-10T02:12:28;0.83;;;0.83;;
10489;SDS011;35569;48.402;10.670;2023-05-10T02:13:02;0.87;;;0.50;;
10489;SDS011;35569;48.402;10.670;2023-05-10T02:13:35;0.50;;;0.50;;
10489;SDS011;35569;48.402;10.670;2023-05-10T02:14:12;4.00;;;0.80;;
10489;SDS011;35569;48.402;10.670;2023-05-10T02:14:45;0.50;;;0.50;;
10489;SDS011;35569;48.402;10.670;2023-05-10T02:15:20;0.40;;;0.40;;
10489;SDS011;35569;48.402;10.670;2023-05-10T02:15:56;0.57;;;0.57;;
10489;SDS011;35569;48.402;10.670;2023-05-10T02:16:29;0.67;;;0.67;;
10489;SDS011;35569;48.402;10.670;2023-05-10T02:17:04;0.53;;;0.53;;
10489;SDS011;35569;48.402;10.670;2023-05-10T02:17:42;0.50;;;0.50;;
10489;SDS011;35569;48.402;10.670;2023-05-10T02:18:15;0.50;;;0.50;;
10489;SDS011;35569;48.402;10.670;2023-05-10T02:18:48;0.50;;;0.50;;
10489;SDS011;35569;48.402;10.670;2023-05-10T02:19:25;0.47;;;0.47;;
10489;SDS011;35569;48.402;10.670;2023-05-10T02:20:01;0.67;;;0.67;;
10489;SDS011;35569;48.402;10.670;2023-05-10T02:20:35;0.50;;;0.50;;
10489;SDS011;35569;48.402;10.670;2023-05-10T02:21:10;0.50;;;0.50;;
10489;SDS011;35569;48.402;10.670;2023-05-10T02:21:43;0.50;;;0.50;;
10489;SDS011;35569;48.402;10.670;2023-05-10T02:22:16;0.63;;;0.50;;
10489;SDS011;35569;48.402;10.670;2023-05-10T02:22:52;0.50;;;0.50;;
10489;SDS011;35569;48.402;10.670;2023-05-10T02:23:26;0.60;;;0.60;;
10489;SDS011;35569;48.402;10.670;2023-05-10T02:24:00;0.40;;;0.40;;
10489;SDS011;35569;48.402;10.670;2023-05-10T02:24:35;0.50;;;0.50;;
10489;SDS011;35569;48.402;10.670;2023-05-10T02:25:08;0.50;;;0.50;;
10489;SDS011;35569;48.402;10.670;2023-05-10T02:25:41;0.50;;;0.50;;
10489;SDS011;35569;48.402;10.670;2023-05-10T02:26:18;3.03;;;0.50;;
10489;SDS011;35569;48.402;10.670;2023-05-10T02:26:50;0.50;;;0.50;;
10489;SDS011;35569;48.402;10.670;2023-05-10T02:27:23;0.50;;;0.50;;
10489;SDS011;35569;48.402;10.670;2023-05-10T02:27:59;0.60;;;0.60;;
10489;SDS011;35569;48.402;10.670;2023-05-10T02:28:33;0.93;;;0.40;;
10489;SDS011;35569;48.402;10.670;2023-05-10T02:29:07;0.50;;;0.50;;
10489;SDS011;35569;48.402;10.670;2023-05-10T02:29:43;0.40;;;0.40;;
10489;SDS011;35569;48.402;10.670;2023-05-10T02:30:16;0.60;;;0.60;;
10489;SDS011;35569;48.402;10.670;2023-05-10T02:30:50;0.57;;;0.57;;
10489;SDS011;35569;48.402;10.670;2023-05-10T02:31:22;0.40;;;0.40;;
10489;SDS011;35569;48.402;10.670;2023-05-10T02:31:57;0.50;;;0.50;;
10489;SDS011;35569;48.402;10.670;2023-05-10T02:32:30;0.60;;;0.60;;
10489;SDS011;35569;48.402;10.670;2023-05-10T02:33:06;0.53;;;0.53;;
10489;SDS011;35569;48.402;10.670;2023-05-10T02:33:39;0.50;;;0.50;;
10489;SDS011;35569;48.402;10.670;2023-05-10T02:34:14;0.50;;;0.50;;
10489;SDS011;35569;48.402;10.670;2023-05-10T02:34:49;0.60;;;0.60;;
10489;SDS011;35569;48.402;10.670;2023-05-10T02:35:23;0.60;;;0.40;;
10489;SDS011;35569;48.402;10.670;2023-05-10T02:35:59;0.50;;;0.50;;
10489;SDS011;35569;48.402;10.670;2023-05-10T02:36:33;0.43;;;0.43;;
10489;SDS011;35569;48.402;10.670;2023-05-10T02:37:08;0.40;;;0.40;;
10489;SDS011;35569;48.402;10.670;2023-05-10T02:37:44;0.43;;;0.40;;
10489;SDS011;35569;48.402;10.670;2023-05-10T02:38:17;0.40;;;0.40;;
10489;SDS011;35569;48.402;10.670;2023-05-10T02:38:51;0.50;;;0.50;;
10489;SDS011;35569;48.402;10.670;2023-05-10T02:39:27;1.90;;;0.50;;
10489;SDS011;35569;48.402;10.670;2023-05-10T02:40:01;0.40;;;0.40;;
10489;SDS011;35569;48.402;10.670;2023-05-10T02:40:34;0.40;;;0.40;;
10489;SDS011;35569;48.402;10.670;2023-05-10T02:41:10;0.47;;;0.47;;
10489;SDS011;35569;48.402;10.670;2023-05-10T02:41:43;0.40;;;0.40;;
10489;SDS011;35569;48.402;10.670;2023-05-10T02:42:18;0.53;;;0.53;;
10489;SDS011;35569;48.402;10.670;2023-05-10T02:42:54;1.57;;;0.50;;
10489;SDS011;35569;48.402;10.670;2023-05-10T02:43:30;0.40;;;0.40;;
10489;SDS011;35569;48.402;10.670;2023-05-10T02:44:04;0.40;;;0.40;;
10489;SDS011;35569;48.402;10.670;2023-05-10T02:44:41;2.83;;;0.53;;
10489;SDS011;35569;48.402;10.670;2023-05-10T02:45:17;0.50;;;0.50;;
10489;SDS011;35569;48.402;10.670;2023-05-10T02:45:51;0.50;;;0.50;;
10489;SDS011;35569;48.402;10.670;2023-05-10T02:46:26;0.50;;;0.47;;
10489;SDS011;35569;48.402;10.670;2023-05-10T02:47:00;0.40;;;0.40;;
10489;SDS011;35569;48.402;10.670;2023-05-10T02:47:33;0.50;;;0.50;;
10489;SDS011;35569;48.402;10.670;2023-05-10T02:48:11;0.50;;;0.50;;
10489;SDS011;35569;48.402;10.670;2023-05-10T02:48:44;0.47;;;0.47;;
10489;SDS011;35569;48.402;10.670;2023-05-10T02:49:16;2.60;;;0.50;;
10489;SDS011;35569;48.402;10.670;2023-05-10T02:49:51;0.40;;;0.40;;
10489;SDS011;35569;48.402;10.670;2023-05-10T02:50:24;0.50;;;0.50;;
10489;SDS011;35569;48.402;10.670;2023-05-10T02:51:00;0.40;;;0.40;;
10489;SDS011;35569;48.402;10.670;2023-05-10T02:51:38;0.40;;;0.40;;
10489;SDS011;35569;48.402;10.670;2023-05-10T02:52:13;0.50;;;0.50;;
10489;SDS011;35569;48.402;10.670;2023-05-10T02:52:49;0.40;;;0.40;;
10489;SDS011;35569;48.402;10.670;2023-05-10T02:53:28;0.40;;;0.40;;
10489;SDS011;35569;48.402;10.670;2023-05-10T02:54:06;0.50;;;0.50;;
10489;SDS011;35569;48.402;10.670;2023-05-10T02:54:43;0.40;;;0.40;;
10489;SDS011;35569;48.402;10.670;2023-05-10T02:55:21;0.43;;;0.43;;
10489;SDS011;35569;48.402;10.670;2023-05-10T02:55:54;0.60;;;0.50;;
10489;SDS011;35569;48.402;10.670;2023-05-10T02:56:31;0.40;;;0.40;;
10489;SDS011;35569;48.402;10.670;2023-05-10T02:57:08;1.53;;;0.40;;
10489;SDS011;35569;48.402;10.670;2023-05-10T02:57:45;0.40;;;0.40;;
10489;SDS011;35569;48.402;10.670;2023-05-10T02:58:21;0.40;;;0.40;;
10489;SDS011;35569;48.402;10.670;2023-05-10T02:58:57;0.40;;;0.40;;
10489;SDS011;35569;48.402;10.670;2023-05-10T02:59:29;0.40;;;0.40;;
10489;SDS011;35569;48.402;10.670;2023-05-10T03:00:01;0.40;;;0.40;;
10489;SDS011;35569;48.402;10.670;2023-05-10T03:00:38;0.40;;;0.40;;
10489;SDS011;35569;48.402;10.670;2023-05-10T03:01:11;4.90;;;0.57;;
10489;SDS011;35569;48.402;10.670;2023-05-10T03:01:44;0.40;;;0.40;;
10489;SDS011;35569;48.402;10.670;2023-05-10T03:02:19;0.40;;;0.40;;
10489;SDS011;35569;48.402;10.670;2023-05-10T03:02:52;0.50;;;0.50;;
10489;SDS011;35569;48.402;10.670;2023-05-10T03:03:27;0.80;;;0.60;;
10489;SDS011;35569;48.402;10.670;2023-05-10T03:04:02;0.50;;;0.50;;
10489;SDS011;35569;48.402;10.670;2023-05-10T03:04:35;0.40;;;0.40;;
10489;SDS011;35569;48.402;10.670;2023-05-10T03:05:08;0.50;;;0.50;;
10489;SDS011;35569;48.402;10.670;2023-05-10T03:05:43;0.50;;;0.50;;
10489;SDS011;35569;48.402;10.670;2023-05-10T03:06:15;0.50;;;0.50;;
10489;SDS011;35569;48.402;10.670;2023-05-10T03:06:48;0.40;;;0.40;;
10489;SDS011;35569;48.402;10.670;2023-05-10T03:07:23;0.40;;;0.40;;
10489;SDS011;35569;48.402;10.670;2023-05-10T03:07:55;0.50;;;0.40;;
10489;SDS011;35569;48.402;10.670;2023-05-10T03:08:28;0.40;;;0.40;;
10489;SDS011;35569;48.402;10.670;2023-05-10T03:09:03;0.40;;;0.30;;
10489;SDS011;35569;48.402;10.670;2023-05-10T03:09:36;0.40;;;0.40;;
10489;SDS011;35569;48.402;10.670;2023-05-10T03:10:08;0.40;;;0.40;;
10489;SDS011;35569;48.402;10.670;2023-05-10T03:10:49;0.40;;;0.40;;
10489;SDS011;35569;48.402;10.670;2023-05-10T03:11:32;0.40;;;0.40;;
10489;SDS011;35569;48.402;10.670;2023-05-10T03:12:15;0.40;;;0.40;;
10489;SDS011;35569;48.402;10.670;2023-05-10T03:12:57;0.40;;;0.40;;
10489;SDS011;35569;48.402;10.670;2023-05-10T03:13:39;0.40;;;0.40;;
10489;SDS011;35569;48.402;10.670;2023-05-10T03:14:21;0.40;;;0.40;;
10489;SDS011;35569;48.402;10.670;2023-05-10T03:15:03;0.43;;;0.43;;
10489;SDS011;35569;48.402;10.670;2023-05-10T03:15:44;0.40;;;0.40;;
10489;SDS011;35569;48.402;10.670;2023-05-10T03:16:22;0.40;;;0.40;;
10489;SDS011;35569;48.402;10.670;2023-05-10T03:17:00;0.37;;;0.37;;
10489;SDS011;35569;48.402;10.670;2023-05-10T03:17:41;0.40;;;0.40;;
10489;SDS011;35569;48.402;10.670;2023-05-10T03:18:21;0.40;;;0.40;;
10489;SDS011;35569;48.402;10.670;2023-05-10T03:18:59;0.40;;;0.40;;
10489;SDS011;35569;48.402;10.670;2023-05-10T03:19:37;0.40;;;0.40;;
10489;SDS011;35569;48.402;10.670;2023-05-10T03:20:23;0.40;;;0.40;;
10489;SDS011;35569;48.402;10.670;2023-05-10T03:20:59;0.40;;;0.40;;
10489;SDS011;35569;48.402;10.670;2023-05-10T03:21:34;0.40;;;0.40;;
10489;SDS011;35569;48.402;10.670;2023-05-10T03:22:12;0.40;;;0.40;;
10489;SDS011;35569;48.402;10.670;2023-05-10T03:22:50;0.40;;;0.40;;
10489;SDS011;35569;48.402;10.670;2023-05-10T03:23:26;0.40;;;0.40;;
10489;SDS011;35569;48.402;10.670;2023-05-10T03:24:03;0.40;;;0.40;;
10489;SDS011;35569;48.402;10.670;2023-05-10T03:24:40;0.40;;;0.40;;
10489;SDS011;35569;48.402;10.670;2023-05-10T03:25:14;0.37;;;0.37;;
10489;SDS011;35569;48.402;10.670;2023-05-10T03:25:50;0.40;;;0.40;;
10489;SDS011;35569;48.402;10.670;2023-05-10T03:26:25;1.33;;;0.40;;
10489;SDS011;35569;48.402;10.670;2023-05-10T03:27:08;0.43;;;0.43;;
10489;SDS011;35569;48.402;10.670;2023-05-10T03:27:43;0.40;;;0.40;;
10489;SDS011;35569;48.402;10.670;2023-05-10T03:28:16;0.43;;;0.40;;
10489;SDS011;35569;48.402;10.670;2023-05-10T03:28:52;0.70;;;0.60;;
10489;SDS011;35569;48.402;10.670;2023-05-10T03:29:25;0.60;;;0.60;;
10489;SDS011;35569;48.402;10.670;2023-05-10T03:29:58;0.40;;;0.40;;
10489;SDS011;35569;48.402;10.670;2023-05-10T03:30:35;0.40;;;0.40;;
10489;SDS011;35569;48.402;10.670;2023-05-10T03:31:10;0.40;;;0.40;;
10489;SDS011;35569;48.402;10.670;2023-05-10T03:31:44;0.97;;;0.50;;
10489;SDS011;35569;48.402;10.670;2023-05-10T03:32:19;1.27;;;0.47;;
10489;SDS011;35569;48.402;10.670;2023-05-10T03:32:52;0.40;;;0.40;;
10489;SDS011;35569;48.402;10.670;2023-05-10T03:33:24;1.43;;;0.40;;
10489;SDS011;35569;48.402;10.670;2023-05-10T03:34:03;0.50;;;0.40;;